sensor_id;sensor_type;location;lat;lon;timestamp;temperature;humidity
4356;DHT22;2191;51.482;7.408;2022-08-19T00:01:56;25.40;99.90
4356;DHT22;2191;51.482;7.408;2022-08-19T00:04:30;25.40;99.90
4356;DHT22;2191;51.482;7.408;2022-08-19T00:06:59;25.50;99.90
4356;DHT22;2191;51.482;7.408;2022-08-19T00:09:28;25.40;99.90
4356;DHT22;2191;51.482;7.408;2022-08-19T00:11:58;25.30;99.90
4356;DHT22;2191;51.482;7.408;2022-08-19T00:14:26;25.30;99.90
4356;DHT22;2191;51.482;7.408;2022-08-19T00:16:59;25.30;99.90
4356;DHT22;2191;51.482;7.408;2022-08-19T00:19:29;25.40;99.90
4356;DHT22;2191;51.482;7.408;2022-08-19T00:21:58;25.40;99.90
4356;DHT22;2191;51.482;7.408;2022-08-19T00:24:26;25.30;99.90
4356;DHT22;2191;51.482;7.408;2022-08-19T00:26:55;25.40;99.90
4356;DHT22;2191;51.482;7.408;2022-08-19T00:29:43;25.40;99.90
4356;DHT22;2191;51.482;7.408;2022-08-19T00:32:20;25.30;99.90
4356;DHT22;2191;51.482;7.408;2022-08-19T00:34:50;25.40;99.90
4356;DHT22;2191;51.482;7.408;2022-08-19T00:37:20;25.30;99.90
4356;DHT22;2191;51.482;7.408;2022-08-19T00:39:49;25.30;99.90
4356;DHT22;2191;51.482;7.408;2022-08-19T00:42:20;25.40;99.90
4356;DHT22;2191;51.482;7.408;2022-08-19T00:44:49;25.50;99.90
4356;DHT22;2191;51.482;7.408;2022-08-19T00:47:18;25.30;99.90
4356;DHT22;2191;51.482;7.408;2022-08-19T00:49:50;25.30;99.90
4356;DHT22;2191;51.482;7.408;2022-08-19T00:52:22;25.30;99.90
4356;DHT22;2191;51.482;7.408;2022-08-19T00:54:51;25.30;99.90
4356;DHT22;2191;51.482;7.408;2022-08-19T00:57:24;25.30;99.90
4356;DHT22;2191;51.482;7.408;2022-08-19T00:59:56;25.20;99.90
4356;DHT22;2191;51.482;7.408;2022-08-19T01:02:30;25.20;99.90
4356;DHT22;2191;51.482;7.408;2022-08-19T01:05:06;25.30;99.90
4356;DHT22;2191;51.482;7.408;2022-08-19T01:07:37;25.20;99.90
4356;DHT22;2191;51.482;7.408;2022-08-19T01:10:09;25.30;99.90
4356;DHT22;2191;51.482;7.408;2022-08-19T01:12:38;25.20;99.90
4356;DHT22;2191;51.482;7.408;2022-08-19T01:15:08;25.20;99.90
4356;DHT22;2191;51.482;7.408;2022-08-19T01:17:40;25.10;99.90
4356;DHT22;2191;51.482;7.408;2022-08-19T01:20:11;25.10;99.90
4356;DHT22;2191;51.482;7.408;2022-08-19T01:22:43;25.00;99.90
4356;DHT22;2191;51.482;7.408;2022-08-19T01:25:13;24.90;99.90
4356;DHT22;2191;51.482;7.408;2022-08-19T01:27:43;25.00;99.90
4356;DHT22;2191;51.482;7.408;2022-08-19T01:30:13;25.00;99.90
4356;DHT22;2191;51.482;7.408;2022-08-19T01:32:42;25.10;99.90
4356;DHT22;2191;51.482;7.408;2022-08-19T01:35:11;25.00;99.90
4356;DHT22;2191;51.482;7.408;2022-08-19T01:37:50;25.00;99.90
4356;DHT22;2191;51.482;7.408;2022-08-19T01:40:20;25.00;99.90
4356;DHT22;2191;51.482;7.408;2022-08-19T01:42:48;25.00;99.90
4356;DHT22;2191;51.482;7.408;2022-08-19T01:45:17;25.00;99.90
4356;DHT22;2191;51.482;7.408;2022-08-19T01:47:45;24.90;99.90
4356;DHT22;2191;51.482;7.408;2022-08-19T01:50:28;24.90;99.90
4356;DHT22;2191;51.482;7.408;2022-08-19T01:52:58;24.90;99.90
4356;DHT22;2191;51.482;7.408;2022-08-19T01:55:35;24.80;99.90
4356;DHT22;2191;51.482;7.408;2022-08-19T01:58:08;24.80;99.90
4356;DHT22;2191;51.482;7.408;2022-08-19T02:00:38;24.80;99.90
4356;DHT22;2191;51.482;7.408;2022-08-19T02:03:05;24.80;99.90
4356;DHT22;2191;51.482;7.408;2022-08-19T02:05:37;24.80;99.90
4356;DHT22;2191;51.482;7.408;2022-08-19T02:08:07;24.80;99.90
4356;DHT22;2191;51.482;7.408;2022-08-19T02:10:39;24.70;99.90
4356;DHT22;2191;51.482;7.408;2022-08-19T02:13:08;24.70;99.90
4356;DHT22;2191;51.482;7.408;2022-08-19T02:15:38;24.60;99.90
4356;DHT22;2191;51.482;7.408;2022-08-19T02:18:06;24.60;99.90
4356;DHT22;2191;51.482;7.408;2022-08-19T02:20:36;24.60;99.90
4356;DHT22;2191;51.482;7.408;2022-08-19T02:23:07;24.60;99.90
4356;DHT22;2191;51.482;7.408;2022-08-19T02:25:41;24.60;99.90
4356;DHT22;2191;51.482;7.408;2022-08-19T02:28:11;24.60;99.90
4356;DHT22;2191;51.482;7.408;2022-08-19T02:30:45;24.60;99.90
4356;DHT22;2191;51.482;7.408;2022-08-19T02:33:13;24.50;99.90
4356;DHT22;2191;51.482;7.408;2022-08-19T02:35:44;24.50;99.90
4356;DHT22;2191;51.482;7.408;2022-08-19T02:38:14;24.50;99.90
4356;DHT22;2191;51.482;7.408;2022-08-19T02:40:55;24.60;99.90
4356;DHT22;2191;51.482;7.408;2022-08-19T02:43:25;24.60;99.90
4356;DHT22;2191;51.482;7.408;2022-08-19T02:45:54;24.60;99.90
4356;DHT22;2191;51.482;7.408;2022-08-19T02:48:24;24.70;99.90
4356;DHT22;2191;51.482;7.408;2022-08-19T02:50:53;24.70;99.90
4356;DHT22;2191;51.482;7.408;2022-08-19T02:53:25;24.70;99.90
4356;DHT22;2191;51.482;7.408;2022-08-19T02:55:54;24.70;99.90
4356;DHT22;2191;51.482;7.408;2022-08-19T02:58:23;25.10;99.90
4356;DHT22;2191;51.482;7.408;2022-08-19T03:00:55;24.70;99.90
4356;DHT22;2191;51.482;7.408;2022-08-19T03:03:24;24.70;99.90
4356;DHT22;2191;51.482;7.408;2022-08-19T03:06:01;24.60;99.90
4356;DHT22;2191;51.482;7.408;2022-08-19T03:08:31;24.50;99.90
4356;DHT22;2191;51.482;7.408;2022-08-19T03:11:03;24.50;99.90
4356;DHT22;2191;51.482;7.408;2022-08-19T03:13:32;24.50;99.90
4356;DHT22;2191;51.482;7.408;2022-08-19T03:16:04;24.40;99.90
4356;DHT22;2191;51.482;7.408;2022-08-19T03:18:32;24.30;99.90
4356;DHT22;2191;51.482;7.408;2022-08-19T03:21:00;24.30;99.90
4356;DHT22;2191;51.482;7.408;2022-08-19T03:23:28;24.30;99.90
4356;DHT22;2191;51.482;7.408;2022-08-19T03:25:58;24.20;99.90
4356;DHT22;2191;51.482;7.408;2022-08-19T03:28:42;24.20;99.90
4356;DHT22;2191;51.482;7.408;2022-08-19T03:31:25;24.20;99.90
4356;DHT22;2191;51.482;7.408;2022-08-19T03:34:24;24.20;99.90
4356;DHT22;2191;51.482;7.408;2022-08-19T03:36:54;24.20;99.90
4356;DHT22;2191;51.482;7.408;2022-08-19T03:39:23;24.20;99.90
4356;DHT22;2191;51.482;7.408;2022-08-19T03:41:54;24.20;99.90
4356;DHT22;2191;51.482;7.408;2022-08-19T03:44:43;24.10;99.90
4356;DHT22;2191;51.482;7.408;2022-08-19T03:47:13;24.10;99.90
4356;DHT22;2191;51.482;7.408;2022-08-19T03:49:43;24.20;99.90
4356;DHT22;2191;51.482;7.408;2022-08-19T03:52:12;24.20;99.90
4356;DHT22;2191;51.482;7.408;2022-08-19T03:54:40;24.20;99.90
4356;DHT22;2191;51.482;7.408;2022-08-19T03:57:10;24.20;99.90
4356;DHT22;2191;51.482;7.408;2022-08-19T03:59:38;24.30;99.90
4356;DHT22;2191;51.482;7.408;2022-08-19T04:02:08;24.30;99.90
4356;DHT22;2191;51.482;7.408;2022-08-19T04:04:37;24.30;99.90
4356;DHT22;2191;51.482;7.408;2022-08-19T04:07:07;24.40;99.90
4356;DHT22;2191;51.482;7.408;2022-08-19T04:09:36;24.30;99.90
4356;DHT22;2191;51.482;7.408;2022-08-19T04:12:05;24.30;99.90
4356;DHT22;2191;51.482;7.408;2022-08-19T04:14:34;24.30;99.90
4356;DHT22;2191;51.482;7.408;2022-08-19T04:17:03;24.20;99.90
4356;DHT22;2191;51.482;7.408;2022-08-19T04:19:35;24.20;99.90
4356;DHT22;2191;51.482;7.408;2022-08-19T04:22:03;24.10;99.90
4356;DHT22;2191;51.482;7.408;2022-08-19T04:24:32;24.10;99.90
4356;DHT22;2191;51.482;7.408;2022-08-19T04:27:03;24.10;99.90
4356;DHT22;2191;51.482;7.408;2022-08-19T04:29:34;24.10;99.90
4356;DHT22;2191;51.482;7.408;2022-08-19T04:32:02;24.10;99.90
4356;DHT22;2191;51.482;7.408;2022-08-19T04:34:35;24.10;99.90
4356;DHT22;2191;51.482;7.408;2022-08-19T04:37:23;24.20;99.90
4356;DHT22;2191;51.482;7.408;2022-08-19T04:39:51;24.20;99.90
4356;DHT22;2191;51.482;7.408;2022-08-19T04:42:36;24.20;99.90
4356;DHT22;2191;51.482;7.408;2022-08-19T04:45:11;24.10;99.90
4356;DHT22;2191;51.482;7.408;2022-08-19T04:47:42;24.10;99.90
4356;DHT22;2191;51.482;7.408;2022-08-19T04:50:24;24.10;99.90
4356;DHT22;2191;51.482;7.408;2022-08-19T04:52:52;24.00;99.90
4356;DHT22;2191;51.482;7.408;2022-08-19T04:55:24;23.80;99.90
4356;DHT22;2191;51.482;7.408;2022-08-19T04:57:53;23.60;99.90
4356;DHT22;2191;51.482;7.408;2022-08-19T05:00:22;23.60;99.90
4356;DHT22;2191;51.482;7.408;2022-08-19T05:02:51;23.60;99.90
4356;DHT22;2191;51.482;7.408;2022-08-19T05:05:19;23.60;99.90
4356;DHT22;2191;51.482;7.408;2022-08-19T05:07:47;23.60;99.90
4356;DHT22;2191;51.482;7.408;2022-08-19T05:10:18;23.60;99.90
4356;DHT22;2191;51.482;7.408;2022-08-19T05:12:47;23.60;99.90
4356;DHT22;2191;51.482;7.408;2022-08-19T05:15:15;23.50;99.90
4356;DHT22;2191;51.482;7.408;2022-08-19T05:17:46;23.30;99.90
4356;DHT22;2191;51.482;7.408;2022-08-19T05:20:28;23.20;99.90
4356;DHT22;2191;51.482;7.408;2022-08-19T05:23:13;23.30;99.90
4356;DHT22;2191;51.482;7.408;2022-08-19T05:25:49;23.30;99.90
4356;DHT22;2191;51.482;7.408;2022-08-19T05:28:18;23.30;99.90
4356;DHT22;2191;51.482;7.408;2022-08-19T05:30:46;23.30;99.90
4356;DHT22;2191;51.482;7.408;2022-08-19T05:33:16;23.30;99.90
4356;DHT22;2191;51.482;7.408;2022-08-19T05:35:44;23.30;99.90
4356;DHT22;2191;51.482;7.408;2022-08-19T05:38:15;23.40;99.90
4356;DHT22;2191;51.482;7.408;2022-08-19T05:40:43;23.50;99.90
4356;DHT22;2191;51.482;7.408;2022-08-19T05:43:16;23.30;99.90
4356;DHT22;2191;51.482;7.408;2022-08-19T05:45:44;23.00;99.90
4356;DHT22;2191;51.482;7.408;2022-08-19T05:48:13;23.30;99.90
4356;DHT22;2191;51.482;7.408;2022-08-19T05:50:43;22.90;99.90
4356;DHT22;2191;51.482;7.408;2022-08-19T05:53:12;23.10;99.90
4356;DHT22;2191;51.482;7.408;2022-08-19T05:55:41;23.00;99.90
4356;DHT22;2191;51.482;7.408;2022-08-19T05:58:09;23.10;99.90
4356;DHT22;2191;51.482;7.408;2022-08-19T06:00:39;23.10;99.90
4356;DHT22;2191;51.482;7.408;2022-08-19T06:03:07;23.20;99.90
4356;DHT22;2191;51.482;7.408;2022-08-19T06:05:40;23.30;99.90
4356;DHT22;2191;51.482;7.408;2022-08-19T06:08:19;23.40;99.90
4356;DHT22;2191;51.482;7.408;2022-08-19T06:11:13;23.60;99.90
4356;DHT22;2191;51.482;7.408;2022-08-19T06:13:42;23.50;99.90
4356;DHT22;2191;51.482;7.408;2022-08-19T06:16:11;23.60;99.90
4356;DHT22;2191;51.482;7.408;2022-08-19T06:18:39;23.80;99.90
4356;DHT22;2191;51.482;7.408;2022-08-19T06:21:07;23.90;99.90
4356;DHT22;2191;51.482;7.408;2022-08-19T06:23:36;24.00;99.90
4356;DHT22;2191;51.482;7.408;2022-08-19T06:26:11;24.00;99.90
4356;DHT22;2191;51.482;7.408;2022-08-19T06:28:39;24.00;99.90
4356;DHT22;2191;51.482;7.408;2022-08-19T06:31:09;24.00;99.90
4356;DHT22;2191;51.482;7.408;2022-08-19T06:33:37;24.00;99.90
4356;DHT22;2191;51.482;7.408;2022-08-19T06:36:07;24.10;99.90
4356;DHT22;2191;51.482;7.408;2022-08-19T06:38:37;24.20;99.90
4356;DHT22;2191;51.482;7.408;2022-08-19T06:41:05;24.20;99.90
4356;DHT22;2191;51.482;7.408;2022-08-19T06:43:33;24.20;99.90
4356;DHT22;2191;51.482;7.408;2022-08-19T06:46:11;24.40;99.90
4356;DHT22;2191;51.482;7.408;2022-08-19T06:48:41;24.40;99.90
4356;DHT22;2191;51.482;7.408;2022-08-19T06:51:12;24.70;99.90
4356;DHT22;2191;51.482;7.408;2022-08-19T06:53:46;24.40;99.90
4356;DHT22;2191;51.482;7.408;2022-08-19T06:56:21;24.20;99.90
4356;DHT22;2191;51.482;7.408;2022-08-19T06:58:51;24.20;99.90
4356;DHT22;2191;51.482;7.408;2022-08-19T07:01:20;24.30;99.90
4356;DHT22;2191;51.482;7.408;2022-08-19T07:03:48;24.40;99.90
4356;DHT22;2191;51.482;7.408;2022-08-19T07:06:17;24.40;99.90
4356;DHT22;2191;51.482;7.408;2022-08-19T07:09:12;24.50;99.90
4356;DHT22;2191;51.482;7.408;2022-08-19T07:11:45;24.50;99.90
4356;DHT22;2191;51.482;7.408;2022-08-19T07:14:14;24.50;99.90
4356;DHT22;2191;51.482;7.408;2022-08-19T07:16:47;24.40;99.90
4356;DHT22;2191;51.482;7.408;2022-08-19T07:19:15;24.50;99.90
4356;DHT22;2191;51.482;7.408;2022-08-19T07:21:45;24.60;99.90
4356;DHT22;2191;51.482;7.408;2022-08-19T07:24:16;24.60;99.90
4356;DHT22;2191;51.482;7.408;2022-08-19T07:26:45;24.60;99.90
4356;DHT22;2191;51.482;7.408;2022-08-19T07:29:19;24.40;99.90
4356;DHT22;2191;51.482;7.408;2022-08-19T07:31:52;24.40;99.90
4356;DHT22;2191;51.482;7.408;2022-08-19T07:34:23;24.50;99.90
4356;DHT22;2191;51.482;7.408;2022-08-19T07:36:54;24.40;99.90
4356;DHT22;2191;51.482;7.408;2022-08-19T07:39:27;24.60;99.90
4356;DHT22;2191;51.482;7.408;2022-08-19T07:41:57;24.70;99.90
4356;DHT22;2191;51.482;7.408;2022-08-19T07:44:26;24.60;99.90
4356;DHT22;2191;51.482;7.408;2022-08-19T07:46:56;24.80;99.90
4356;DHT22;2191;51.482;7.408;2022-08-19T07:49:29;24.80;99.90
4356;DHT22;2191;51.482;7.408;2022-08-19T07:52:00;24.90;99.90
4356;DHT22;2191;51.482;7.408;2022-08-19T07:54:31;24.60;99.90
4356;DHT22;2191;51.482;7.408;2022-08-19T07:57:02;24.80;99.90
4356;DHT22;2191;51.482;7.408;2022-08-19T07:59:30;24.90;99.90
4356;DHT22;2191;51.482;7.408;2022-08-19T08:01:59;24.80;99.90
4356;DHT22;2191;51.482;7.408;2022-08-19T08:04:32;24.80;99.90
4356;DHT22;2191;51.482;7.408;2022-08-19T08:07:18;24.70;99.90
4356;DHT22;2191;51.482;7.408;2022-08-19T08:10:06;24.60;99.90
4356;DHT22;2191;51.482;7.408;2022-08-19T08:12:47;24.60;99.90
4356;DHT22;2191;51.482;7.408;2022-08-19T08:15:35;24.80;99.90
4356;DHT22;2191;51.482;7.408;2022-08-19T08:18:09;25.00;99.90
4356;DHT22;2191;51.482;7.408;2022-08-19T08:20:37;25.10;99.90
4356;DHT22;2191;51.482;7.408;2022-08-19T08:23:05;25.20;99.90
4356;DHT22;2191;51.482;7.408;2022-08-19T08:25:55;25.30;99.90
4356;DHT22;2191;51.482;7.408;2022-08-19T08:28:25;25.30;99.90
4356;DHT22;2191;51.482;7.408;2022-08-19T08:30:57;25.40;99.90
4356;DHT22;2191;51.482;7.408;2022-08-19T08:33:28;25.50;99.90
4356;DHT22;2191;51.482;7.408;2022-08-19T08:36:01;25.70;99.90
4356;DHT22;2191;51.482;7.408;2022-08-19T08:38:30;25.70;99.90
4356;DHT22;2191;51.482;7.408;2022-08-19T08:41:13;25.60;99.90
4356;DHT22;2191;51.482;7.408;2022-08-19T08:43:48;25.60;99.90
4356;DHT22;2191;51.482;7.408;2022-08-19T08:46:21;25.70;99.90
4356;DHT22;2191;51.482;7.408;2022-08-19T08:49:02;25.70;99.90
4356;DHT22;2191;51.482;7.408;2022-08-19T08:51:35;25.80;99.90
4356;DHT22;2191;51.482;7.408;2022-08-19T08:54:14;25.60;99.90
4356;DHT22;2191;51.482;7.408;2022-08-19T08:56:44;25.50;99.90
4356;DHT22;2191;51.482;7.408;2022-08-19T08:59:19;25.40;99.90
4356;DHT22;2191;51.482;7.408;2022-08-19T09:01:48;25.40;99.90
4356;DHT22;2191;51.482;7.408;2022-08-19T09:04:16;25.50;99.90
4356;DHT22;2191;51.482;7.408;2022-08-19T09:06:50;25.30;99.90
4356;DHT22;2191;51.482;7.408;2022-08-19T09:09:30;25.40;99.90
4356;DHT22;2191;51.482;7.408;2022-08-19T09:12:10;25.60;99.90
4356;DHT22;2191;51.482;7.408;2022-08-19T09:14:46;25.60;99.90
4356;DHT22;2191;51.482;7.408;2022-08-19T09:17:19;25.70;99.90
4356;DHT22;2191;51.482;7.408;2022-08-19T09:19:57;26.00;99.90
4356;DHT22;2191;51.482;7.408;2022-08-19T09:22:27;26.00;99.90
4356;DHT22;2191;51.482;7.408;2022-08-19T09:24:55;26.10;99.90
4356;DHT22;2191;51.482;7.408;2022-08-19T09:27:26;25.90;99.90
4356;DHT22;2191;51.482;7.408;2022-08-19T09:30:16;26.10;99.90
4356;DHT22;2191;51.482;7.408;2022-08-19T09:32:46;26.10;99.90
4356;DHT22;2191;51.482;7.408;2022-08-19T09:35:20;26.10;99.90
4356;DHT22;2191;51.482;7.408;2022-08-19T09:37:50;26.20;99.90
4356;DHT22;2191;51.482;7.408;2022-08-19T09:40:26;26.10;99.90
4356;DHT22;2191;51.482;7.408;2022-08-19T09:42:58;26.10;99.90
4356;DHT22;2191;51.482;7.408;2022-08-19T09:45:35;26.20;99.90
4356;DHT22;2191;51.482;7.408;2022-08-19T09:48:04;26.20;99.90
4356;DHT22;2191;51.482;7.408;2022-08-19T09:50:32;26.30;99.90
4356;DHT22;2191;51.482;7.408;2022-08-19T09:53:01;26.50;99.90
4356;DHT22;2191;51.482;7.408;2022-08-19T09:55:32;26.60;99.90
4356;DHT22;2191;51.482;7.408;2022-08-19T09:58:02;26.50;99.90
4356;DHT22;2191;51.482;7.408;2022-08-19T10:00:31;26.40;99.90
4356;DHT22;2191;51.482;7.408;2022-08-19T10:02:59;26.50;99.90
4356;DHT22;2191;51.482;7.408;2022-08-19T10:05:27;26.70;99.90
4356;DHT22;2191;51.482;7.408;2022-08-19T10:08:15;26.70;99.90
4356;DHT22;2191;51.482;7.408;2022-08-19T10:10:46;26.90;99.90
4356;DHT22;2191;51.482;7.408;2022-08-19T10:13:18;26.90;99.90
4356;DHT22;2191;51.482;7.408;2022-08-19T10:15:49;26.80;99.90
4356;DHT22;2191;51.482;7.408;2022-08-19T10:18:20;26.70;99.90
4356;DHT22;2191;51.482;7.408;2022-08-19T10:20:49;26.60;99.90
4356;DHT22;2191;51.482;7.408;2022-08-19T10:23:19;26.70;99.90
4356;DHT22;2191;51.482;7.408;2022-08-19T10:25:47;26.90;99.90
4356;DHT22;2191;51.482;7.408;2022-08-19T10:28:17;27.00;99.90
4356;DHT22;2191;51.482;7.408;2022-08-19T10:30:49;27.10;99.90
4356;DHT22;2191;51.482;7.408;2022-08-19T10:33:17;27.20;99.90
4356;DHT22;2191;51.482;7.408;2022-08-19T10:36:08;27.20;99.90
4356;DHT22;2191;51.482;7.408;2022-08-19T10:38:37;27.20;99.90
4356;DHT22;2191;51.482;7.408;2022-08-19T10:41:21;27.30;99.90
4356;DHT22;2191;51.482;7.408;2022-08-19T10:43:56;26.90;99.90
4356;DHT22;2191;51.482;7.408;2022-08-19T10:46:30;27.00;99.90
4356;DHT22;2191;51.482;7.408;2022-08-19T10:48:59;27.10;99.90
4356;DHT22;2191;51.482;7.408;2022-08-19T10:51:29;27.10;99.90
4356;DHT22;2191;51.482;7.408;2022-08-19T10:54:15;27.00;99.90
4356;DHT22;2191;51.482;7.408;2022-08-19T10:56:57;27.10;99.90
4356;DHT22;2191;51.482;7.408;2022-08-19T10:59:27;27.10;99.90
4356;DHT22;2191;51.482;7.408;2022-08-19T11:02:03;27.20;99.90
4356;DHT22;2191;51.482;7.408;2022-08-19T11:04:32;27.50;99.90
4356;DHT22;2191;51.482;7.408;2022-08-19T11:07:02;27.50;99.90
4356;DHT22;2191;51.482;7.408;2022-08-19T11:09:31;27.70;99.90
4356;DHT22;2191;51.482;7.408;2022-08-19T11:12:00;27.60;99.90
4356;DHT22;2191;51.482;7.408;2022-08-19T11:14:32;27.50;99.90
4356;DHT22;2191;51.482;7.408;2022-08-19T11:17:02;27.70;99.90
4356;DHT22;2191;51.482;7.408;2022-08-19T11:19:32;27.60;99.90
4356;DHT22;2191;51.482;7.408;2022-08-19T11:22:00;27.70;99.90
4356;DHT22;2191;51.482;7.408;2022-08-19T11:24:30;27.70;99.90
4356;DHT22;2191;51.482;7.408;2022-08-19T11:27:04;27.70;99.90
4356;DHT22;2191;51.482;7.408;2022-08-19T11:29:35;27.80;99.90
4356;DHT22;2191;51.482;7.408;2022-08-19T11:32:05;27.80;99.90
4356;DHT22;2191;51.482;7.408;2022-08-19T11:34:34;27.90;99.90
4356;DHT22;2191;51.482;7.408;2022-08-19T11:37:03;27.90;99.90
4356;DHT22;2191;51.482;7.408;2022-08-19T11:39:34;27.90;99.90
4356;DHT22;2191;51.482;7.408;2022-08-19T11:42:06;28.00;99.90
4356;DHT22;2191;51.482;7.408;2022-08-19T11:44:50;28.00;99.90
4356;DHT22;2191;51.482;7.408;2022-08-19T11:47:18;28.00;99.90
4356;DHT22;2191;51.482;7.408;2022-08-19T11:49:47;28.10;99.90
4356;DHT22;2191;51.482;7.408;2022-08-19T11:52:15;28.10;99.90
4356;DHT22;2191;51.482;7.408;2022-08-19T11:54:43;28.10;99.90
4356;DHT22;2191;51.482;7.408;2022-08-19T11:57:10;28.10;99.90
4356;DHT22;2191;51.482;7.408;2022-08-19T11:59:39;28.30;99.90
4356;DHT22;2191;51.482;7.408;2022-08-19T12:02:08;28.30;99.90
4356;DHT22;2191;51.482;7.408;2022-08-19T12:04:37;28.30;99.90
4356;DHT22;2191;51.482;7.408;2022-08-19T12:07:05;28.10;99.90
4356;DHT22;2191;51.482;7.408;2022-08-19T12:09:33;28.20;99.90
4356;DHT22;2191;51.482;7.408;2022-08-19T12:12:08;28.30;99.90
4356;DHT22;2191;51.482;7.408;2022-08-19T12:14:36;28.20;99.90
4356;DHT22;2191;51.482;7.408;2022-08-19T12:17:05;28.40;99.90
4356;DHT22;2191;51.482;7.408;2022-08-19T12:19:37;28.50;99.90
4356;DHT22;2191;51.482;7.408;2022-08-19T12:22:05;28.50;99.90
4356;DHT22;2191;51.482;7.408;2022-08-19T12:24:34;28.40;99.90
4356;DHT22;2191;51.482;7.408;2022-08-19T12:27:02;28.40;99.90
4356;DHT22;2191;51.482;7.408;2022-08-19T12:29:38;28.30;99.90
4356;DHT22;2191;51.482;7.408;2022-08-19T12:32:07;28.50;99.90
4356;DHT22;2191;51.482;7.408;2022-08-19T12:34:39;28.80;99.90
4356;DHT22;2191;51.482;7.408;2022-08-19T12:37:08;28.70;99.90
4356;DHT22;2191;51.482;7.408;2022-08-19T12:39:38;28.80;99.90
4356;DHT22;2191;51.482;7.408;2022-08-19T12:42:08;28.90;99.90
4356;DHT22;2191;51.482;7.408;2022-08-19T12:44:37;28.90;99.90
4356;DHT22;2191;51.482;7.408;2022-08-19T12:47:09;29.10;99.90
4356;DHT22;2191;51.482;7.408;2022-08-19T12:49:40;29.10;99.90
4356;DHT22;2191;51.482;7.408;2022-08-19T12:52:20;29.00;99.90
4356;DHT22;2191;51.482;7.408;2022-08-19T12:54:49;29.10;99.90
4356;DHT22;2191;51.482;7.408;2022-08-19T12:57:20;29.20;99.90
4356;DHT22;2191;51.482;7.408;2022-08-19T12:59:58;29.40;99.90
4356;DHT22;2191;51.482;7.408;2022-08-19T13:02:30;29.40;99.90
4356;DHT22;2191;51.482;7.408;2022-08-19T13:05:07;29.30;99.90
4356;DHT22;2191;51.482;7.408;2022-08-19T13:07:38;29.30;99.90
4356;DHT22;2191;51.482;7.408;2022-08-19T13:10:08;29.30;99.90
4356;DHT22;2191;51.482;7.408;2022-08-19T13:12:37;29.20;99.90
4356;DHT22;2191;51.482;7.408;2022-08-19T13:15:08;29.30;99.90
4356;DHT22;2191;51.482;7.408;2022-08-19T13:17:38;29.20;99.90
4356;DHT22;2191;51.482;7.408;2022-08-19T13:20:09;29.30;99.90
4356;DHT22;2191;51.482;7.408;2022-08-19T13:22:38;29.10;99.90
4356;DHT22;2191;51.482;7.408;2022-08-19T13:25:10;29.20;99.90
4356;DHT22;2191;51.482;7.408;2022-08-19T13:27:39;29.20;99.90
4356;DHT22;2191;51.482;7.408;2022-08-19T13:30:09;29.10;99.90
4356;DHT22;2191;51.482;7.408;2022-08-19T13:32:56;29.00;99.90
4356;DHT22;2191;51.482;7.408;2022-08-19T13:35:47;29.00;99.90
4356;DHT22;2191;51.482;7.408;2022-08-19T13:38:17;29.10;99.90
4356;DHT22;2191;51.482;7.408;2022-08-19T13:40:47;29.20;99.90
4356;DHT22;2191;51.482;7.408;2022-08-19T13:43:17;29.30;99.90
4356;DHT22;2191;51.482;7.408;2022-08-19T13:45:50;29.30;99.90
4356;DHT22;2191;51.482;7.408;2022-08-19T13:48:23;29.20;99.90
4356;DHT22;2191;51.482;7.408;2022-08-19T13:50:54;29.00;99.90
4356;DHT22;2191;51.482;7.408;2022-08-19T13:53:23;28.90;99.90
4356;DHT22;2191;51.482;7.408;2022-08-19T13:55:51;28.80;99.90
4356;DHT22;2191;51.482;7.408;2022-08-19T13:58:20;29.00;99.90
4356;DHT22;2191;51.482;7.408;2022-08-19T14:00:48;29.20;99.90
4356;DHT22;2191;51.482;7.408;2022-08-19T14:03:16;29.30;99.90
4356;DHT22;2191;51.482;7.408;2022-08-19T14:05:44;29.50;99.90
4356;DHT22;2191;51.482;7.408;2022-08-19T14:08:14;29.40;99.90
4356;DHT22;2191;51.482;7.408;2022-08-19T14:10:43;29.50;99.90
4356;DHT22;2191;51.482;7.408;2022-08-19T14:13:14;29.40;99.90
4356;DHT22;2191;51.482;7.408;2022-08-19T14:15:46;29.40;99.90
4356;DHT22;2191;51.482;7.408;2022-08-19T14:18:15;29.40;99.90
4356;DHT22;2191;51.482;7.408;2022-08-19T14:20:44;29.50;99.90
4356;DHT22;2191;51.482;7.408;2022-08-19T14:23:12;29.50;99.90
4356;DHT22;2191;51.482;7.408;2022-08-19T14:25:42;29.60;99.90
4356;DHT22;2191;51.482;7.408;2022-08-19T14:28:11;29.60;99.90
4356;DHT22;2191;51.482;7.408;2022-08-19T14:30:39;29.80;99.90
4356;DHT22;2191;51.482;7.408;2022-08-19T14:33:07;29.70;99.90
4356;DHT22;2191;51.482;7.408;2022-08-19T14:35:37;29.60;99.90
4356;DHT22;2191;51.482;7.408;2022-08-19T14:38:15;29.80;99.90
4356;DHT22;2191;51.482;7.408;2022-08-19T14:40:55;29.80;99.90
4356;DHT22;2191;51.482;7.408;2022-08-19T14:43:24;29.90;99.90
4356;DHT22;2191;51.482;7.408;2022-08-19T14:45:52;29.90;99.90
4356;DHT22;2191;51.482;7.408;2022-08-19T14:48:20;29.90;99.90
4356;DHT22;2191;51.482;7.408;2022-08-19T14:50:54;30.10;99.90
4356;DHT22;2191;51.482;7.408;2022-08-19T14:53:22;30.10;99.90
4356;DHT22;2191;51.482;7.408;2022-08-19T14:55:50;30.20;99.90
4356;DHT22;2191;51.482;7.408;2022-08-19T14:58:19;30.40;99.90
4356;DHT22;2191;51.482;7.408;2022-08-19T15:00:57;30.40;99.90
4356;DHT22;2191;51.482;7.408;2022-08-19T15:03:26;30.40;99.90
4356;DHT22;2191;51.482;7.408;2022-08-19T15:05:55;30.30;99.90
4356;DHT22;2191;51.482;7.408;2022-08-19T15:08:24;30.40;99.90
4356;DHT22;2191;51.482;7.408;2022-08-19T15:10:55;30.30;99.90
4356;DHT22;2191;51.482;7.408;2022-08-19T15:13:26;30.40;99.90
4356;DHT22;2191;51.482;7.408;2022-08-19T15:15:54;30.20;99.90
4356;DHT22;2191;51.482;7.408;2022-08-19T15:18:24;30.10;99.90
4356;DHT22;2191;51.482;7.408;2022-08-19T15:20:52;30.00;99.90
4356;DHT22;2191;51.482;7.408;2022-08-19T15:23:21;30.10;99.90
4356;DHT22;2191;51.482;7.408;2022-08-19T15:25:49;30.20;99.90
4356;DHT22;2191;51.482;7.408;2022-08-19T15:28:20;30.10;99.90
4356;DHT22;2191;51.482;7.408;2022-08-19T15:30:49;30.00;99.90
4356;DHT22;2191;51.482;7.408;2022-08-19T15:33:19;29.90;99.90
4356;DHT22;2191;51.482;7.408;2022-08-19T15:35:47;29.90;99.90
4356;DHT22;2191;51.482;7.408;2022-08-19T15:38:17;29.90;99.90
4356;DHT22;2191;51.482;7.408;2022-08-19T15:40:48;29.70;99.90
4356;DHT22;2191;51.482;7.408;2022-08-19T15:43:18;29.80;99.90
4356;DHT22;2191;51.482;7.408;2022-08-19T15:45:49;29.70;99.90
4356;DHT22;2191;51.482;7.408;2022-08-19T15:48:17;29.50;99.90
4356;DHT22;2191;51.482;7.408;2022-08-19T15:50:45;29.50;99.90
4356;DHT22;2191;51.482;7.408;2022-08-19T15:53:13;29.50;99.90
4356;DHT22;2191;51.482;7.408;2022-08-19T15:55:43;29.40;99.90
4356;DHT22;2191;51.482;7.408;2022-08-19T15:58:13;29.30;99.90
4356;DHT22;2191;51.482;7.408;2022-08-19T16:01:06;29.30;99.90
4356;DHT22;2191;51.482;7.408;2022-08-19T16:03:55;29.20;99.90
4356;DHT22;2191;51.482;7.408;2022-08-19T16:06:44;29.20;99.90
4356;DHT22;2191;51.482;7.408;2022-08-19T16:09:13;29.20;99.90
4356;DHT22;2191;51.482;7.408;2022-08-19T16:11:42;29.30;99.90
4356;DHT22;2191;51.482;7.408;2022-08-19T16:14:12;29.40;99.90
4356;DHT22;2191;51.482;7.408;2022-08-19T16:16:43;29.50;99.90
4356;DHT22;2191;51.482;7.408;2022-08-19T16:19:17;29.60;99.90
4356;DHT22;2191;51.482;7.408;2022-08-19T16:21:48;29.30;99.90
4356;DHT22;2191;51.482;7.408;2022-08-19T16:24:18;29.30;99.90
4356;DHT22;2191;51.482;7.408;2022-08-19T16:26:47;29.30;99.90
4356;DHT22;2191;51.482;7.408;2022-08-19T16:29:16;29.30;99.90
4356;DHT22;2191;51.482;7.408;2022-08-19T16:32:02;29.10;99.90